Time;durP1;ratioP1;P1;durP2;ratioP2;P2;SDS_P1;SDS_P2;PMS_P1;PMS_P2;Temp;Humidity;BMP_temperature;BMP_pressure;BME280_temperature;BME280_humidity;BME280_pressure;Samples;Min_cycle;Max_cycle;Signal;HPM_P1;HPM_P2
2022/04/17 00:00:32;;;;;;;5.32;1.88;;;32.30;20.00;;;;;;5085611;28;20184;-55
2022/04/17 00:02:59;;;;;;;8.45;2.15;;;32.30;20.30;;;;;;5085450;28;20089;-56
2022/04/17 00:05:25;;;;;;;6.75;1.77;;;32.00;20.50;;;;;;5052328;28;20512;-56
2022/04/17 00:07:51;;;;;;;7.70;2.03;;;31.90;20.80;;;;;;5069295;28;20533;-54
2022/04/17 00:10:18;;;;;;;7.57;1.38;;;31.80;21.20;;;;;;5071430;28;20474;-53
2022/04/17 00:12:44;;;;;;;8.20;2.08;;;31.80;21.30;;;;;;5070107;28;20091;-54
2022/04/17 00:15:11;;;;;;;8.55;1.70;;;31.80;21.40;;;;;;5069973;28;20059;-59
2022/04/17 00:17:44;;;;;;;8.15;1.40;;;31.70;21.70;;;;;;5085331;28;20062;-54
2022/04/17 00:20:12;;;;;;;7.60;1.55;;;31.60;22.00;;;;;;5070204;28;20065;-54
2022/04/17 00:22:39;;;;;;;11.57;1.80;;;31.80;22.00;;;;;;5070313;28;20113;-55
2022/04/17 00:25:07;;;;;;;8.43;1.70;;;31.80;22.20;;;;;;5084370;28;20159;-58
2022/04/17 00:27:34;;;;;;;9.68;1.67;;;31.40;22.50;;;;;;5068269;28;20561;-55
2022/04/17 00:30:03;;;;;;;11.93;1.70;;;31.40;22.70;;;;;;5068012;28;20067;-54
2022/04/17 00:32:31;;;;;;;8.40;1.80;;;31.30;23.00;;;;;;5069441;28;20081;-54
2022/04/17 00:35:02;;;;;;;7.88;1.88;;;31.20;23.20;;;;;;5067735;28;20570;-57
2022/04/17 00:37:28;;;;;;;7.88;1.95;;;31.00;23.50;;;;;;5067724;28;20100;-56
2022/04/17 00:39:55;;;;;;;7.13;1.45;;;30.90;23.80;;;;;;5051613;28;20103;-54
2022/04/17 00:42:21;;;;;;;7.43;1.80;;;30.70;24.20;;;;;;5069556;28;20089;-58
2022/04/17 00:44:48;;;;;;;7.47;1.45;;;30.70;24.30;;;;;;5052009;28;20451;-58
2022/04/17 00:47:16;;;;;;;14.88;2.28;;;30.70;24.50;;;;;;5069571;28;20497;-59
2022/04/17 00:49:46;;;;;;;12.50;2.28;;;30.90;24.50;;;;;;5069353;28;20515;-53
2022/04/17 00:52:14;;;;;;;8.93;1.50;;;30.70;24.40;;;;;;5084971;28;20070;-53
2022/04/17 00:54:45;;;;;;;8.75;1.70;;;30.50;24.50;;;;;;5067997;28;20160;-54
2022/04/17 00:57:12;;;;;;;9.40;1.83;;;30.50;24.70;;;;;;5053738;28;20101;-57
2022/04/17 00:59:44;;;;;;;9.35;1.38;;;30.30;24.70;;;;;;5071436;28;20608;-53
2022/04/17 01:02:12;;;;;;;6.95;1.67;;;30.00;24.70;;;;;;5071668;28;20614;-54
2022/04/17 01:04:39;;;;;;;11.52;1.95;;;29.90;24.90;;;;;;5088760;28;20062;-56
2022/04/17 01:07:06;;;;;;;12.30;1.75;;;30.00;24.90;;;;;;5070732;28;20062;-58
2022/04/17 01:09:33;;;;;;;7.25;1.85;;;29.80;25.10;;;;;;5054665;28;20086;-52
2022/04/17 01:12:00;;;;;;;19.85;2.28;;;29.70;25.10;;;;;;5078433;28;20073;-53
2022/04/17 01:14:30;;;;;;;11.23;2.53;;;29.70;25.20;;;;;;5037434;28;20482;-54
2022/04/17 01:16:56;;;;;;;12.43;1.98;;;29.70;25.30;;;;;;5072989;28;20069;-56
2022/04/17 01:19:23;;;;;;;10.73;1.50;;;29.60;25.50;;;;;;5074341;28;20091;-54
2022/04/17 01:21:50;;;;;;;8.07;2.35;;;29.40;25.70;;;;;;5088041;28;20092;-55
2022/04/17 01:27:03;;;;;;;10.82;1.80;;;29.20;25.50;;;;;;5093166;28;20122;-52
2022/04/17 01:29:32;;;;;;;10.02;2.30;;;29.10;25.70;;;;;;5069014;28;20124;-55
2022/04/17 01:32:00;;;;;;;9.23;2.28;;;29.00;25.80;;;;;;5087951;28;20075;-53
2022/04/17 01:34:26;;;;;;;8.23;1.67;;;28.90;25.90;;;;;;5070913;28;20126;-52
2022/04/17 01:36:53;;;;;;;7.10;1.63;;;28.70;25.90;;;;;;5085614;28;20070;-56
2022/04/17 01:39:20;;;;;;;7.20;1.40;;;28.60;26.10;;;;;;5057424;28;20156;-56
2022/04/17 01:41:50;;;;;;;14.55;2.30;;;28.60;26.30;;;;;;5071008;28;20443;-55
2022/04/17 01:44:17;;;;;;;14.57;2.47;;;28.50;26.60;;;;;;5069630;28;20078;-56
2022/04/17 01:46:45;;;;;;;6.53;1.58;;;28.40;26.70;;;;;;5073096;28;20087;-57
2022/04/17 01:49:12;;;;;;;10.95;2.47;;;28.20;27.00;;;;;;5072505;28;20068;-52
2022/04/17 01:51:40;;;;;;;13.07;1.65;;;28.10;27.30;;;;;;5070895;28;20068;-54
2022/04/17 01:54:08;;;;;;;11.00;1.27;;;28.00;27.40;;;;;;5071846;28;20096;-55
2022/04/17 01:56:36;;;;;;;8.70;1.63;;;27.80;27.40;;;;;;5054445;28;20445;-57
2022/04/17 01:59:04;;;;;;;8.27;1.70;;;27.80;27.60;;;;;;5071870;28;20083;-50
2022/04/17 02:01:34;;;;;;;13.38;2.05;;;27.70;27.70;;;;;;5037849;28;20092;-54
2022/04/17 02:04:01;;;;;;;18.88;2.20;;;27.60;27.60;;;;;;5071126;28;20086;-56
2022/04/17 02:06:28;;;;;;;15.27;1.98;;;27.60;27.60;;;;;;5088141;28;20072;-54
2022/04/17 02:08:55;;;;;;;28.48;1.98;;;27.50;27.70;;;;;;5071630;28;20558;-56
2022/04/17 02:11:24;;;;;;;24.00;2.80;;;27.50;27.70;;;;;;5074339;28;20552;-53
2022/04/17 02:13:50;;;;;;;21.63;2.40;;;27.30;27.70;;;;;;5073788;28;20096;-54
2022/04/17 02:16:18;;;;;;;23.30;2.47;;;27.30;28.00;;;;;;5085954;28;20460;-55
2022/04/17 02:18:49;;;;;;;34.28;3.00;;;27.20;27.90;;;;;;5086655;28;20951;-54
2022/04/17 02:21:16;;;;;;;35.72;2.92;;;27.10;28.00;;;;;;5070355;28;20076;-53
2022/04/17 02:23:44;;;;;;;41.70;3.75;;;27.00;28.10;;;;;;5071564;28;20613;-54
2022/04/17 02:26:12;;;;;;;43.58;3.05;;;26.90;28.20;;;;;;5071878;28;20583;-57
2022/04/17 02:28:40;;;;;;;53.70;3.85;;;26.80;28.30;;;;;;5037520;28;20136;-57
2022/04/17 02:31:09;;;;;;;50.13;3.60;;;26.80;28.50;;;;;;5071479;28;20471;-55
2022/04/17 02:33:36;;;;;;;24.77;2.72;;;26.70;28.50;;;;;;5071197;28;20115;-54
2022/04/17 02:36:04;;;;;;;31.98;2.67;;;26.60;28.50;;;;;;5094376;28;20088;-57
2022/04/17 02:38:30;;;;;;;24.88;2.50;;;26.50;28.50;;;;;;5071700;28;20072;-55
2022/04/17 02:40:57;;;;;;;20.23;3.13;;;26.40;28.50;;;;;;5055690;28;20163;-53
2022/04/17 02:43:24;;;;;;;24.83;3.10;;;26.30;28.60;;;;;;5071126;28;20079;-54
2022/04/17 02:45:53;;;;;;;24.13;3.40;;;26.30;28.60;;;;;;5070162;28;20082;-57
2022/04/17 02:48:20;;;;;;;31.42;3.15;;;26.20;28.70;;;;;;5089744;28;20078;-54
2022/04/17 02:50:47;;;;;;;28.52;2.78;;;26.20;28.70;;;;;;5100528;28;20508;-56
2022/04/17 02:53:15;;;;;;;19.35;2.38;;;26.20;28.80;;;;;;5069476;28;20129;-57
2022/04/17 02:55:41;;;;;;;7.80;2.05;;;26.00;28.90;;;;;;5052899;28;20071;-52
2022/04/17 02:58:10;;;;;;;9.82;1.90;;;26.00;28.90;;;;;;5069516;28;20076;-58
2022/04/17 03:05:36;;;;;;;9.77;2.00;;;25.90;28.90;;;;;;5053200;28;20149;-56
2022/04/17 03:06:10;;;;;;;12.15;2.10;;;25.70;29.20;;;;;;5071015;28;20600;-54
2022/04/17 03:08:41;;;;;;;13.75;2.70;;;25.60;29.30;;;;;;5070668;28;20541;-56
2022/04/17 03:11:08;;;;;;;13.55;2.80;;;25.50;29.40;;;;;;5085655;28;20605;-58
2022/04/17 03:13:35;;;;;;;13.27;2.28;;;25.50;29.50;;;;;;5052466;28;20554;-56
2022/04/17 03:16:02;;;;;;;10.45;2.25;;;25.50;29.60;;;;;;5070340;28;20556;-56
2022/04/17 03:18:28;;;;;;;30.58;2.78;;;25.50;29.60;;;;;;5050368;28;20091;-56
2022/04/17 03:20:55;;;;;;;20.33;3.22;;;25.50;29.60;;;;;;5092871;28;20129;-58
2022/04/17 03:23:21;;;;;;;12.65;2.65;;;25.50;29.60;;;;;;5080832;28;20069;-57
2022/04/17 03:25:48;;;;;;;18.10;2.58;;;25.50;29.70;;;;;;5071379;28;20063;-55
2022/04/17 03:28:15;;;;;;;32.67;3.00;;;25.40;29.50;;;;;;5088551;28;20122;-59
2022/04/17 03:30:41;;;;;;;17.92;3.75;;;25.30;29.50;;;;;;5052104;28;20110;-57
2022/04/17 03:33:08;;;;;;;17.85;4.10;;;25.30;29.50;;;;;;5068672;28;20100;-59
2022/04/17 03:35:34;;;;;;;19.27;3.42;;;25.20;29.50;;;;;;5075345;28;20142;-58
2022/04/17 03:38:01;;;;;;;18.42;3.08;;;25.10;29.70;;;;;;5069382;28;20162;-55
2022/04/17 03:40:27;;;;;;;10.85;3.22;;;25.00;29.80;;;;;;5085494;28;20514;-56
2022/04/17 03:42:53;;;;;;;13.57;2.65;;;24.80;29.90;;;;;;5085727;28;20088;-57
2022/04/17 03:45:20;;;;;;;20.48;3.47;;;24.80;29.70;;;;;;5052139;28;20091;-57
2022/04/17 03:47:46;;;;;;;15.18;3.35;;;24.80;29.50;;;;;;5069649;28;20112;-56
2022/04/17 03:50:13;;;;;;;15.23;2.92;;;24.80;29.40;;;;;;5051818;28;20088;-55
2022/04/17 03:52:48;;;;;;;23.40;3.08;;;24.70;29.30;;;;;;5052198;28;20087;-55
2022/04/17 03:55:15;;;;;;;13.35;2.40;;;24.70;29.20;;;;;;5052182;28;20072;-53
2022/04/17 03:57:42;;;;;;;17.73;2.63;;;24.70;29.10;;;;;;5068901;28;20075;-60
2022/04/17 04:00:11;;;;;;;10.07;2.97;;;24.80;29.10;;;;;;5068356;28;20075;-59
2022/04/17 04:02:38;;;;;;;10.88;3.00;;;24.70;29.10;;;;;;5085544;28;20091;-54
2022/04/17 04:05:05;;;;;;;11.43;3.42;;;24.70;29.10;;;;;;5068810;28;20175;-57
2022/04/17 04:07:32;;;;;;;12.93;3.30;;;24.60;29.10;;;;;;5068416;28;20083;-55
2022/04/17 04:09:58;;;;;;;19.10;3.80;;;24.50;29.10;;;;;;5069455;28;20088;-54
2022/04/17 04:12:25;;;;;;;14.85;4.70;;;24.40;28.90;;;;;;5068617;28;20083;-53
2022/04/17 04:14:55;;;;;;;11.35;3.92;;;24.40;29.10;;;;;;5052063;28;20133;-58
2022/04/17 04:17:21;;;;;;;11.57;3.25;;;24.30;29.20;;;;;;5070648;28;20078;-54
2022/04/17 04:19:48;;;;;;;12.05;3.45;;;24.30;29.40;;;;;;5052163;28;20079;-54
2022/04/17 04:22:14;;;;;;;10.43;3.30;;;24.30;29.50;;;;;;5083979;28;20092;-58
2022/04/17 04:24:40;;;;;;;11.80;2.95;;;24.20;29.50;;;;;;5084914;28;20083;-59
2022/04/17 04:29:51;;;;;;;7.65;2.80;;;24.20;29.70;;;;;;5075011;28;20098;-56
2022/04/17 04:32:20;;;;;;;10.63;3.20;;;24.20;29.70;;;;;;5087323;28;20225;-58
2022/04/17 04:34:48;;;;;;;7.25;2.38;;;24.10;29.70;;;;;;5072124;28;20523;-60
2022/04/17 04:37:15;;;;;;;7.32;2.70;;;24.10;29.70;;;;;;5071752;28;20453;-57
2022/04/17 04:39:41;;;;;;;6.90;1.92;;;24.10;29.60;;;;;;5072651;28;20075;-56
2022/04/17 04:42:08;;;;;;;5.32;2.10;;;23.90;29.40;;;;;;5088971;28;20114;-59
2022/04/17 04:44:35;;;;;;;6.72;2.30;;;23.90;29.50;;;;;;5096101;28;20083;-57
2022/04/17 04:47:01;;;;;;;6.28;2.03;;;23.90;29.50;;;;;;5076905;28;20098;-58
2022/04/17 04:49:30;;;;;;;5.20;1.90;;;23.90;29.60;;;;;;5055393;28;20525;-60
2022/04/17 04:52:01;;;;;;;6.35;1.73;;;23.90;29.60;;;;;;5088613;28;20088;-56
2022/04/17 04:54:31;;;;;;;4.43;1.85;;;23.80;29.60;;;;;;5055764;28;20080;-60
2022/04/17 04:56:58;;;;;;;9.30;2.15;;;23.80;29.80;;;;;;5038471;28;20157;-56
2022/04/17 04:59:24;;;;;;;6.15;2.35;;;23.70;30.00;;;;;;5093005;28;20518;-57
2022/04/17 05:01:51;;;;;;;6.70;2.28;;;23.60;30.00;;;;;;5072843;28;20076;-59
2022/04/17 05:04:22;;;;;;;8.18;2.15;;;23.60;30.30;;;;;;5087598;28;20530;-55
2022/04/17 05:06:49;;;;;;;9.00;2.28;;;23.50;30.50;;;;;;5056327;28;20087;-56
2022/04/17 05:09:15;;;;;;;7.22;1.90;;;23.40;30.60;;;;;;5089643;28;20091;-58
2022/04/17 05:11:42;;;;;;;9.48;2.22;;;23.40;30.80;;;;;;5076714;28;20072;-56
2022/04/17 05:14:12;;;;;;;7.47;2.40;;;23.30;31.00;;;;;;5077180;28;20103;-59
2022/04/17 05:16:39;;;;;;;11.15;2.38;;;23.30;31.20;;;;;;5075153;28;20158;-57
2022/04/17 05:19:21;;;;;;;22.45;2.13;;;23.20;31.30;;;;;;5054980;28;20068;-59
2022/04/17 05:21:48;;;;;;;10.02;2.40;;;23.20;31.60;;;;;;5079916;28;20079;-56
2022/04/17 05:24:16;;;;;;;18.60;2.60;;;23.10;31.80;;;;;;5072377;28;20080;-56
2022/04/17 05:26:43;;;;;;;7.72;2.65;;;23.10;32.00;;;;;;5053520;28;20175;-57
2022/04/17 05:29:10;;;;;;;7.25;1.90;;;22.90;32.90;;;;;;5053802;28;20099;-57
2022/04/17 05:31:36;;;;;;;9.25;1.77;;;22.90;32.50;;;;;;5071905;28;20080;-57
2022/04/17 05:34:02;;;;;;;8.25;2.00;;;22.90;32.70;;;;;;5037144;28;20100;-58
2022/04/17 05:36:29;;;;;;;4.78;1.75;;;22.90;32.80;;;;;;5071175;28;20107;-58
2022/04/17 05:38:56;;;;;;;7.13;2.13;;;22.90;33.00;;;;;;5070382;28;20084;-55
2022/04/17 05:41:29;;;;;;;9.30;1.88;;;22.80;33.10;;;;;;5053886;28;20080;-60
2022/04/17 05:44:00;;;;;;;91.60;81.63;;;22.80;33.30;;;;;;5069320;28;20174;-58
2022/04/17 05:46:30;;;;;;;4.70;1.67;;;22.80;33.70;;;;;;5053166;28;20086;-61
2022/04/17 05:48:57;;;;;;;13.60;3.05;;;22.70;34.10;;;;;;5075406;28;20090;-57
2022/04/17 05:51:24;;;;;;;9.50;2.58;;;22.60;34.70;;;;;;5072807;28;20068;-58
2022/04/17 05:53:50;;;;;;;9.13;1.70;;;22.60;35.40;;;;;;5057154;28;20096;-56
2022/04/17 05:56:17;;;;;;;8.82;2.17;;;22.50;36.00;;;;;;5072349;28;20133;-56
2022/04/17 05:58:43;;;;;;;9.02;2.20;;;22.50;36.50;;;;;;5070012;28;20233;-57
2022/04/17 06:01:09;;;;;;;8.07;2.75;;;22.30;37.00;;;;;;5071456;28;20105;-59
2022/04/17 06:03:36;;;;;;;5.90;2.78;;;22.20;37.80;;;;;;5086974;28;20099;-61
2022/04/17 06:06:02;;;;;;;10.10;2.88;;;22.10;38.50;;;;;;5082525;28;20088;-58
2022/04/17 06:08:29;;;;;;;10.57;2.22;;;22.00;39.20;;;;;;5071000;28;20444;-58
2022/04/17 06:10:57;;;;;;;6.07;2.22;;;21.80;39.70;;;;;;5039533;28;20076;-58
2022/04/17 06:13:23;;;;;;;10.23;2.05;;;21.80;40.00;;;;;;5072445;28;20094;-58
2022/04/17 06:15:50;;;;;;;4.90;1.92;;;21.80;40.10;;;;;;5087795;28;20068;-60
2022/04/17 06:18:16;;;;;;;5.63;1.70;;;21.80;40.20;;;;;;5057859;28;20080;-59
2022/04/17 06:20:42;;;;;;;6.45;1.80;;;21.80;40.30;;;;;;5072814;28;20064;-59
2022/04/17 06:23:09;;;;;;;12.45;2.47;;;21.60;40.50;;;;;;5087782;28;20098;-59
2022/04/17 06:25:35;;;;;;;11.40;2.35;;;21.60;40.60;;;;;;5092833;28;20079;-61
2022/04/17 06:28:02;;;;;;;6.97;2.22;;;21.40;40.90;;;;;;5075393;28;20543;-56
2022/04/17 06:30:28;;;;;;;8.70;2.35;;;21.40;40.80;;;;;;5038726;28;20534;-58
2022/04/17 06:32:55;;;;;;;6.22;2.40;;;21.50;40.70;;;;;;5089064;28;20115;-62
2022/04/17 06:35:22;;;;;;;6.93;2.00;;;21.30;40.80;;;;;;5073150;28;20116;-58
2022/04/17 06:37:59;;;;;;;8.23;2.22;;;21.40;40.90;;;;;;5090494;28;20137;-57
2022/04/17 06:40:33;;;;;;;9.75;2.83;;;21.30;40.90;;;;;;5073136;28;20121;-59
2022/04/17 06:43:01;;;;;;;11.52;4.60;;;21.40;40.70;;;;;;5072071;28;20166;-61
2022/04/17 06:45:28;;;;;;;11.48;4.55;;;21.40;40.60;;;;;;5072701;28;20075;-57
2022/04/17 06:47:55;;;;;;;23.17;14.15;;;21.40;40.80;;;;;;5069633;28;20438;-56
2022/04/17 06:50:22;;;;;;;12.10;5.50;;;21.40;40.80;;;;;;5089047;28;20073;-58
2022/04/17 06:52:52;;;;;;;14.98;6.60;;;21.40;41.00;;;;;;5092099;28;20170;-57
2022/04/17 06:55:18;;;;;;;10.05;4.97;;;21.30;41.40;;;;;;5089457;28;20067;-60
2022/04/17 06:57:46;;;;;;;9.65;3.60;;;21.20;41.60;;;;;;5073849;28;20117;-62
2022/04/17 07:00:15;;;;;;;10.23;4.95;;;21.20;41.90;;;;;;5036782;28;20111;-57
2022/04/17 07:02:43;;;;;;;10.50;4.40;;;21.10;41.90;;;;;;5071749;28;20155;-58
2022/04/17 07:05:11;;;;;;;12.85;4.50;;;21.10;42.10;;;;;;5076584;28;20118;-58
2022/04/17 07:07:37;;;;;;;12.05;6.18;;;21.10;42.10;;;;;;5091318;28;20077;-55
2022/04/17 07:10:04;;;;;;;11.05;3.08;;;21.10;42.00;;;;;;5073942;28;20515;-60
2022/04/17 07:12:31;;;;;;;8.38;3.25;;;21.10;42.00;;;;;;5074822;28;20064;-61
2022/04/17 07:15:01;;;;;;;9.68;2.83;;;21.10;41.80;;;;;;5071664;28;20084;-59
2022/04/17 07:17:38;;;;;;;6.07;2.25;;;21.10;41.70;;;;;;5073909;28;20095;-58
2022/04/17 07:20:07;;;;;;;8.07;1.80;;;21.00;41.50;;;;;;5088368;28;20446;-60
2022/04/17 07:22:34;;;;;;;11.82;2.60;;;21.00;41.40;;;;;;5074701;28;20077;-56
2022/04/17 07:25:02;;;;;;;9.45;2.60;;;20.90;41.50;;;;;;5087800;28;20068;-57
2022/04/17 07:27:36;;;;;;;10.20;2.47;;;21.00;41.50;;;;;;5057793;28;20178;-60
2022/04/17 07:30:13;;;;;;;6.07;2.20;;;21.00;41.60;;;;;;5071621;28;20142;-55
2022/04/17 07:32:41;;;;;;;14.75;2.20;;;20.90;41.60;;;;;;5070876;28;20087;-58
2022/04/17 07:35:08;;;;;;;8.50;1.98;;;21.00;41.70;;;;;;5088605;28;20103;-61
2022/04/17 07:37:36;;;;;;;8.23;2.00;;;20.90;41.80;;;;;;5040074;28;20076;-58
2022/04/17 07:40:17;;;;;;;10.55;2.00;;;20.90;41.90;;;;;;5073959;28;20144;-61
2022/04/17 07:42:44;;;;;;;8.88;1.90;;;20.90;42.00;;;;;;5069296;28;20100;-60
2022/04/17 07:45:12;;;;;;;6.85;1.85;;;20.90;42.00;;;;;;5072350;28;20083;-57
2022/04/17 07:47:38;;;;;;;5.63;2.08;;;20.90;42.10;;;;;;5075230;28;20088;-59
2022/04/17 07:50:07;;;;;;;7.28;1.90;;;20.80;42.20;;;;;;5072499;28;20076;-57
2022/04/17 07:52:37;;;;;;;10.75;1.70;;;20.70;42.50;;;;;;5072128;28;20067;-60
2022/04/17 07:55:04;;;;;;;12.60;2.03;;;20.70;42.70;;;;;;5069765;28;20113;-61
2022/04/17 07:57:53;;;;;;;4.53;1.67;;;20.60;42.90;;;;;;5071059;28;20078;-58
2022/04/17 08:00:19;;;;;;;7.03;1.85;;;20.60;43.00;;;;;;5072036;28;20537;-59
2022/04/17 08:02:50;;;;;;;6.97;1.67;;;20.70;43.10;;;;;;5054112;28;20079;-59
2022/04/17 08:05:17;;;;;;;9.27;1.98;;;20.60;43.20;;;;;;5072448;28;20072;-61
2022/04/17 08:07:43;;;;;;;9.32;2.10;;;20.50;43.50;;;;;;5092047;28;20079;-58
2022/04/17 08:10:09;;;;;;;6.63;1.77;;;20.50;44.10;;;;;;5054407;28;20084;-61
2022/04/17 08:12:36;;;;;;;6.97;1.58;;;20.40;44.40;;;;;;5077882;28;20068;-62
2022/04/17 08:15:02;;;;;;;;;;;20.40;44.50;;;;;;5079445;28;20133;-62
2022/04/17 08:17:28;;;;;;;10.52;1.80;;;20.40;44.50;;;;;;5093801;28;20340;-59
2022/04/17 08:19:55;;;;;;;9.43;1.80;;;20.20;44.60;;;;;;5076977;28;20076;-57
2022/04/17 08:22:21;;;;;;;12.55;1.67;;;20.20;44.80;;;;;;5090597;28;20599;-57
2022/04/17 08:24:48;;;;;;;7.10;1.88;;;20.10;44.90;;;;;;5077306;28;20091;-57
2022/04/17 08:27:14;;;;;;;10.98;2.17;;;20.10;45.10;;;;;;5041744;28;20170;-57
2022/04/17 08:29:40;;;;;;;;;;;20.00;45.10;;;;;;5053428;28;20070;-58
2022/04/17 08:32:07;;;;;;;10.40;1.80;;;20.00;45.00;;;;;;5071369;28;20024;-58
2022/04/17 08:34:33;;;;;;;10.40;1.98;;;20.00;45.30;;;;;;5077471;28;20110;-59
2022/04/17 08:37:00;;;;;;;6.22;1.83;;;19.90;45.10;;;;;;5074261;28;20088;-56
2022/04/17 08:39:26;;;;;;;4.15;1.50;;;19.90;45.40;;;;;;5091672;28;20068;-55
2022/04/17 08:41:58;;;;;;;4.88;1.75;;;19.80;45.40;;;;;;5055305;28;20073;-56
2022/04/17 08:44:24;;;;;;;12.80;2.90;;;19.80;45.40;;;;;;5055651;28;20084;-55
2022/04/17 08:46:51;;;;;;;6.18;1.63;;;19.90;45.70;;;;;;5041151;28;20158;-55
2022/04/17 08:49:19;;;;;;;7.25;1.52;;;20.20;45.00;;;;;;5095225;28;20188;-55
2022/04/17 08:51:48;;;;;;;4.47;1.90;;;20.50;44.50;;;;;;5078469;28;20084;-57
2022/04/17 08:54:16;;;;;;;7.90;1.77;;;20.50;44.30;;;;;;5075668;28;20115;-52
2022/04/17 08:56:42;;;;;;;4.28;1.50;;;20.50;44.50;;;;;;5072556;28;20083;-56
2022/04/17 08:59:09;;;;;;;8.85;1.80;;;20.40;44.70;;;;;;5075743;28;20088;-53
2022/04/17 09:01:38;;;;;;;8.85;1.70;;;20.30;44.80;;;;;;5088398;28;20080;-55
2022/04/17 09:04:05;;;;;;;6.05;1.70;;;20.50;44.80;;;;;;5070527;28;20079;-53
2022/04/17 09:06:32;;;;;;;5.95;1.60;;;20.60;44.40;;;;;;5073008;28;20165;-54
2022/04/17 09:09:05;;;;;;;3.88;1.75;;;20.50;44.30;;;;;;5072582;28;20087;-55
2022/04/17 09:11:34;;;;;;;6.72;1.65;;;20.40;44.50;;;;;;5088963;28;20072;-57
2022/04/17 09:14:02;;;;;;;6.22;1.55;;;20.20;44.60;;;;;;5068433;28;20183;-54
2022/04/17 09:16:33;;;;;;;9.30;1.90;;;20.20;44.70;;;;;;5073573;28;20085;-52
2022/04/17 09:19:10;;;;;;;9.57;2.05;;;20.10;44.80;;;;;;5075731;28;20072;-55
2022/04/17 09:21:37;;;;;;;3.70;1.27;;;20.30;44.80;;;;;;5091360;28;20456;-54
2022/04/17 09:24:21;;;;;;;3.15;1.27;;;20.30;44.40;;;;;;5059131;28;20176;-56
2022/04/17 09:26:58;;;;;;;4.45;1.45;;;20.20;44.50;;;;;;5075316;28;20961;-57
2022/04/17 09:29:30;;;;;;;7.75;1.42;;;20.10;44.70;;;;;;5089560;28;20549;-54
2022/04/17 09:32:10;;;;;;;4.30;1.30;;;20.00;44.60;;;;;;5074871;28;20090;-55
2022/04/17 09:34:50;;;;;;;5.50;1.30;;;20.00;44.80;;;;;;5090617;28;20104;-53
2022/04/17 09:37:20;;;;;;;3.63;1.23;;;20.00;44.80;;;;;;5089657;28;20142;-54
2022/04/17 09:39:48;;;;;;;5.68;1.40;;;19.90;44.70;;;;;;5075845;28;20102;-54
2022/04/17 09:42:25;;;;;;;2.47;1.30;;;19.90;44.70;;;;;;5073184;28;20185;-54
2022/04/17 09:44:55;;;;;;;3.08;1.27;;;19.80;44.70;;;;;;5073092;28;20072;-60
2022/04/17 09:47:28;;;;;;;6.30;1.52;;;19.80;44.70;;;;;;5075215;28;20069;-55
2022/04/17 09:50:09;;;;;;;6.03;1.38;;;19.80;44.40;;;;;;5055153;28;20091;-56
2022/04/17 09:52:45;;;;;;;4.28;1.40;;;19.80;44.20;;;;;;5074911;28;20145;-53
2022/04/17 09:55:12;;;;;;;5.22;1.73;;;19.90;44.30;;;;;;5089779;28;20075;-53
2022/04/17 09:57:46;;;;;;;7.43;1.73;;;20.00;43.80;;;;;;5090738;28;20072;-53
2022/04/17 10:00:15;;;;;;;2.65;1.20;;;19.90;43.50;;;;;;5073175;28;20120;-55
2022/04/17 10:02:43;;;;;;;7.13;1.40;;;19.80;43.40;;;;;;5072050;28;20072;-59
2022/04/17 10:05:15;;;;;;;10.88;2.00;;;19.80;43.50;;;;;;5039493;28;20079;-56
2022/04/17 10:07:43;;;;;;;5.82;1.40;;;19.80;43.40;;;;;;5073669;28;20076;-54
2022/04/17 10:10:12;;;;;;;5.50;1.80;;;19.70;43.30;;;;;;5075590;28;20196;-54
2022/04/17 10:12:43;;;;;;;3.40;1.30;;;19.80;43.10;;;;;;5073540;28;20080;-52
2022/04/17 10:15:11;;;;;;;10.13;1.70;;;19.90;43.20;;;;;;5075084;28;20170;-57
2022/04/17 10:17:40;;;;;;;5.45;1.90;;;20.10;43.10;;;;;;5037049;28;20500;-53
2022/04/17 10:20:09;;;;;;;5.80;1.83;;;20.10;42.70;;;;;;5070366;28;20141;-54
2022/04/17 10:22:37;;;;;;;4.55;1.80;;;20.00;42.90;;;;;;5071003;28;20534;-56
2022/04/17 10:25:10;;;;;;;9.68;1.70;;;19.90;43.30;;;;;;5072132;28;20519;-54
2022/04/17 10:27:37;;;;;;;4.15;1.45;;;19.80;43.40;;;;;;5039164;28;20071;-51
2022/04/17 10:30:12;;;;;;;7.78;1.70;;;19.80;43.40;;;;;;5087747;28;20602;-53
2022/04/17 10:33:16;;;;;;;5.07;1.60;;;19.80;43.40;;;;;;5055649;28;20083;-54
2022/04/17 10:36:27;;;;;;;4.65;1.13;;;19.70;43.50;;;;;;5066108;28;20080;-52
2022/04/17 10:39:20;;;;;;;7.45;1.65;;;19.70;43.70;;;;;;5068561;28;20073;-53
2022/04/17 10:41:46;;;;;;;5.53;1.30;;;19.60;43.90;;;;;;5072776;28;20080;-57
2022/04/17 10:44:15;;;;;;;4.05;1.40;;;19.60;44.10;;;;;;5072585;28;20086;-52
2022/04/17 10:46:46;;;;;;;6.15;1.40;;;19.70;43.90;;;;;;5053689;28;20091;-52
2022/04/17 10:49:15;;;;;;;4.70;1.40;;;19.70;43.90;;;;;;5056305;28;20173;-57
2022/04/17 10:51:50;;;;;;;2.75;1.27;;;19.60;43.80;;;;;;5073586;28;20555;-55
2022/04/17 10:54:17;;;;;;;2.50;1.00;;;19.50;43.90;;;;;;5055122;28;20095;-54
2022/04/17 10:56:55;;;;;;;8.63;1.90;;;19.50;44.10;;;;;;5075387;28;20064;-52
2022/04/17 10:59:26;;;;;;;4.30;1.50;;;19.60;44.10;;;;;;5069692;28;20565;-54
2022/04/17 11:02:00;;;;;;;8.98;1.40;;;19.40;43.80;;;;;;5072103;28;20605;-53
2022/04/17 11:04:38;;;;;;;4.97;1.10;;;19.40;43.80;;;;;;5071833;28;20793;-53
2022/04/17 11:07:05;;;;;;;4.53;1.60;;;19.30;44.00;;;;;;5073765;28;20096;-53
2022/04/17 11:09:41;;;;;;;6.03;1.30;;;19.40;44.30;;;;;;5089140;28;20069;-54
2022/04/17 11:12:08;;;;;;;3.42;1.30;;;19.40;44.50;;;;;;5074049;28;20120;-57
2022/04/17 11:14:34;;;;;;;7.25;1.60;;;19.40;44.30;;;;;;5087973;28;20113;-56
2022/04/17 11:17:08;;;;;;;5.70;1.48;;;19.30;44.30;;;;;;5055375;28;20068;-53
2022/04/17 11:19:41;;;;;;;3.75;1.40;;;19.20;44.70;;;;;;5074784;28;20092;-53
2022/04/17 11:22:09;;;;;;;7.70;1.40;;;19.20;45.70;;;;;;5087951;28;20525;-54
2022/04/17 11:24:57;;;;;;;7.68;1.50;;;19.20;45.70;;;;;;5089184;28;20130;-54
2022/04/17 11:27:32;;;;;;;7.90;1.50;;;19.20;45.70;;;;;;5067123;28;20108;-56
2022/04/17 11:30:00;;;;;;;5.00;1.65;;;19.10;45.90;;;;;;5072738;28;20098;-53
2022/04/17 11:32:29;;;;;;;4.97;1.98;;;19.00;46.90;;;;;;5074473;28;20107;-53
2022/04/17 11:35:02;;;;;;;7.25;1.60;;;19.00;46.30;;;;;;5087637;28;20143;-57
2022/04/17 11:37:31;;;;;;;7.50;1.63;;;18.70;46.60;;;;;;5087702;28;20081;-54
2022/04/17 11:39:59;;;;;;;5.97;1.83;;;18.60;47.00;;;;;;5066945;28;20076;-54
2022/04/17 11:42:29;;;;;;;5.50;2.13;;;18.60;47.10;;;;;;5073918;28;20084;-53
2022/04/17 11:45:01;;;;;;;9.27;2.08;;;18.40;47.30;;;;;;5072852;28;20441;-55
2022/04/17 11:47:28;;;;;;;14.05;2.35;;;18.30;47.70;;;;;;5072869;28;20163;-59
2022/04/17 11:49:54;;;;;;;6.70;2.10;;;18.30;48.00;;;;;;5074111;28;20527;-53
2022/04/17 11:52:21;;;;;;;;;;;18.40;47.90;;;;;;5071943;28;20096;-54
2022/04/17 11:54:48;;;;;;;4.40;1.58;;;18.50;47.50;;;;;;5073019;28;19976;-53
2022/04/17 11:57:18;;;;;;;6.53;1.55;;;18.30;47.50;;;;;;5072477;28;20072;-53
2022/04/17 11:59:50;;;;;;;9.90;1.70;;;18.20;47.70;;;;;;5053475;28;20156;-54
2022/04/17 12:02:18;;;;;;;4.90;1.60;;;18.00;48.00;;;;;;5073733;28;20087;-53
2022/04/17 12:04:46;;;;;;;5.18;1.80;;;18.00;48.20;;;;;;5070864;28;20127;-54
2022/04/17 12:07:14;;;;;;;5.50;1.70;;;17.90;48.30;;;;;;5073024;28;20084;-53
2022/04/17 12:09:41;;;;;;;7.70;2.10;;;17.90;48.40;;;;;;5069309;28;20077;-55
2022/04/17 12:12:11;;;;;;;6.28;1.95;;;17.90;48.40;;;;;;5069139;28;20076;-53
2022/04/17 12:14:38;;;;;;;6.90;1.63;;;18.00;48.90;;;;;;5050830;28;20138;-54
2022/04/17 12:17:05;;;;;;;4.63;1.63;;;17.80;48.60;;;;;;5086559;28;20069;-54
2022/04/17 12:19:32;;;;;;;4.78;1.50;;;17.80;48.40;;;;;;5076803;28;20079;-54
2022/04/17 12:21:59;;;;;;;6.85;1.50;;;17.80;48.40;;;;;;5053242;28;20577;-53
2022/04/17 12:24:26;;;;;;;5.10;1.55;;;17.70;48.40;;;;;;5086645;28;20088;-53
2022/04/17 12:26:53;;;;;;;5.43;1.50;;;17.70;48.50;;;;;;5065470;28;20075;-53
2022/04/17 12:29:19;;;;;;;6.63;1.92;;;17.70;48.40;;;;;;5086757;28;20119;-53
2022/04/17 12:31:46;;;;;;;15.32;2.15;;;17.60;48.40;;;;;;5069367;28;20084;-56
2022/04/17 12:34:19;;;;;;;7.30;1.40;;;17.60;48.60;;;;;;5072847;28;20128;-55
2022/04/17 12:36:46;;;;;;;8.77;1.65;;;17.60;48.30;;;;;;5086827;28;20142;-55
2022/04/17 12:39:13;;;;;;;7.95;1.80;;;17.80;48.40;;;;;;5090254;28;20079;-50
2022/04/17 12:41:42;;;;;;;5.72;1.80;;;17.80;48.20;;;;;;5087173;28;20117;-56
2022/04/17 12:44:09;;;;;;;5.70;1.70;;;17.80;47.70;;;;;;5074144;28;20551;-56
2022/04/17 12:46:42;;;;;;;6.15;1.58;;;17.70;47.70;;;;;;5050508;28;20080;-53
2022/04/17 12:49:08;;;;;;;10.25;2.28;;;17.80;48.20;;;;;;5072425;28;20430;-53
2022/04/17 12:51:36;;;;;;;11.13;2.47;;;17.80;47.80;;;;;;5071389;28;20906;-53
2022/04/17 12:54:03;;;;;;;9.32;2.90;;;17.80;48.00;;;;;;5056430;28;20091;-56
2022/04/17 12:56:29;;;;;;;11.30;3.63;;;17.90;48.20;;;;;;5060366;28;20110;-55
2022/04/17 12:59:02;;;;;;;12.68;2.85;;;17.80;47.90;;;;;;5077834;28;20069;-53